ASA65 PAJN-PANC
Flight info
| Callsign | ASA65 |
|---|---|
| Flight time | 1h 26m |
| Altitude | 38000 |
| Route | CHLKT2 ALATY JOH WITTI5 |
| Aircraft | B737/M-SDE2E3FGHIRWXY/LB1 |
Departure
| Time | 2026-04-21 01:01 |
|---|---|
| Airport | Juneau International Airport (PAJN) |
Arrival
| Time | 2026-04-21 02:28 |
|---|---|
| Airport | Ted Stevens Anchorage International Airport (PANC) |
| Time | Latitude | Longitude | Altitude | Speed | Heading |
|---|---|---|---|---|---|
| 2026-04-21 00:28 | 58.35847 | -134.58429 | 33 ft | 0 kts | 48° |
| 2026-04-21 00:45 | 58.35832 | -134.58461 | 31 ft | 4 kts | 48° |
| 2026-04-21 00:45 | 58.35814 | -134.58499 | 32 ft | 4 kts | 49° |
| 2026-04-21 00:45 | 58.35797 | -134.58538 | 33 ft | 4 kts | 50° |
| 2026-04-21 00:46 | 58.35788 | -134.58558 | 32 ft | 1 kts | 50° |
| 2026-04-21 00:46 | 58.35787 | -134.58559 | 31 ft | 0 kts | 50° |
| 2026-04-21 00:49 | 58.35790 | -134.58542 | 33 ft | 5 kts | 70° |
| 2026-04-21 00:49 | 58.35783 | -134.58429 | 32 ft | 11 kts | 105° |
| 2026-04-21 00:50 | 58.35741 | -134.58309 | 33 ft | 12 kts | 162° |
| 2026-04-21 00:50 | 58.35687 | -134.58211 | 32 ft | 11 kts | 105° |
| 2026-04-21 00:50 | 58.35666 | -134.58065 | 33 ft | 12 kts | 104° |
| 2026-04-21 00:50 | 58.35645 | -134.57903 | 32 ft | 13 kts | 104° |
| 2026-04-21 00:51 | 58.35620 | -134.57722 | 33 ft | 15 kts | 104° |
| 2026-04-21 00:51 | 58.35592 | -134.57525 | 33 ft | 16 kts | 105° |
| 2026-04-21 00:51 | 58.35566 | -134.57319 | 33 ft | 16 kts | 103° |
| 2026-04-21 00:51 | 58.35535 | -134.57112 | 33 ft | 16 kts | 106° |
| 2026-04-21 00:52 | 58.35505 | -134.56904 | 33 ft | 16 kts | 104° |
| 2026-04-21 00:52 | 58.35477 | -134.56697 | 33 ft | 16 kts | 104° |
| 2026-04-21 00:52 | 58.35446 | -134.56474 | 33 ft | 19 kts | 105° |
| 2026-04-21 00:52 | 58.35410 | -134.56217 | 33 ft | 21 kts | 105° |
| 2026-04-21 00:53 | 58.35370 | -134.55927 | 32 ft | 24 kts | 104° |
| 2026-04-21 00:53 | 58.35328 | -134.55619 | 32 ft | 23 kts | 105° |
| 2026-04-21 00:53 | 58.35287 | -134.55345 | 33 ft | 16 kts | 113° |
| 2026-04-21 00:53 | 58.35264 | -134.55299 | 33 ft | 0 kts | 157° |
| 2026-04-21 00:59 | 58.35262 | -134.55297 | 31 ft | 1 kts | 158° |
| 2026-04-21 00:59 | 58.35247 | -134.55289 | 33 ft | 4 kts | 166° |
| 2026-04-21 01:00 | 58.35209 | -134.55271 | 32 ft | 8 kts | 168° |
| 2026-04-21 01:00 | 58.35180 | -134.55336 | 32 ft | 11 kts | 266° |
| 2026-04-21 01:00 | 58.35239 | -134.55797 | 30 ft | 72 kts | 285° |
| 2026-04-21 01:00 | 58.35423 | -134.57139 | 39 ft | 134 kts | 285° |
| 2026-04-21 01:01 | 58.35679 | -134.58983 | 599 ft | 147 kts | 282° |
| 2026-04-21 01:01 | 58.35898 | -134.61005 | 1272 ft | 156 kts | 271° |
| 2026-04-21 01:01 | 58.36152 | -134.63022 | 2113 ft | 166 kts | 273° |
| 2026-04-21 01:01 | 58.36114 | -134.65366 | 2627 ft | 193 kts | 264° |
| 2026-04-21 01:02 | 58.36016 | -134.68054 | 3132 ft | 212 kts | 265° |
| 2026-04-21 01:02 | 58.36064 | -134.70943 | 3880 ft | 224 kts | 279° |
| 2026-04-21 01:02 | 58.36550 | -134.73861 | 4805 ft | 233 kts | 287° |
| 2026-04-21 01:02 | 58.37113 | -134.76745 | 5814 ft | 238 kts | 288° |
| 2026-04-21 01:03 | 58.37685 | -134.79753 | 6726 ft | 244 kts | 288° |
| 2026-04-21 01:03 | 58.38256 | -134.82809 | 7726 ft | 245 kts | 288° |
| 2026-04-21 01:03 | 58.38818 | -134.85882 | 8782 ft | 247 kts | 288° |
| 2026-04-21 01:03 | 58.39388 | -134.88983 | 9787 ft | 249 kts | 288° |
| 2026-04-21 01:04 | 58.39965 | -134.92136 | 10543 ft | 260 kts | 288° |
| 2026-04-21 01:04 | 58.40589 | -134.95572 | 10771 ft | 288 kts | 288° |
| 2026-04-21 01:04 | 58.41266 | -134.99313 | 11194 ft | 305 kts | 288° |
| 2026-04-21 01:04 | 58.41961 | -135.03168 | 12040 ft | 308 kts | 288° |
| 2026-04-21 01:05 | 58.42657 | -135.07041 | 13029 ft | 309 kts | 288° |
| 2026-04-21 01:05 | 58.43347 | -135.10633 | 13971 ft | 310 kts | 294° |
| 2026-04-21 01:05 | 58.44414 | -135.14223 | 14861 ft | 313 kts | 299° |
| 2026-04-21 01:05 | 58.45601 | -135.17729 | 15737 ft | 316 kts | 300° |
| 2026-04-21 01:06 | 58.46820 | -135.21240 | 16588 ft | 318 kts | 301° |
| 2026-04-21 01:06 | 58.48031 | -135.24806 | 17507 ft | 318 kts | 299° |
| 2026-04-21 01:06 | 58.49230 | -135.28371 | 18364 ft | 322 kts | 299° |
| 2026-04-21 01:06 | 58.50452 | -135.32013 | 18918 ft | 328 kts | 298° |
| 2026-04-21 01:07 | 58.51658 | -135.35680 | 19719 ft | 330 kts | 299° |
| 2026-04-21 01:07 | 58.52911 | -135.39374 | 20500 ft | 332 kts | 299° |
| 2026-04-21 01:07 | 58.54176 | -135.43119 | 21225 ft | 336 kts | 298° |
| 2026-04-21 01:07 | 58.55448 | -135.46900 | 21888 ft | 339 kts | 298° |
| 2026-04-21 01:08 | 58.56725 | -135.50738 | 22539 ft | 344 kts | 298° |
| 2026-04-21 01:08 | 58.58016 | -135.54641 | 23284 ft | 347 kts | 298° |
| 2026-04-21 01:08 | 58.59311 | -135.58566 | 23874 ft | 350 kts | 297° |
| 2026-04-21 01:08 | 58.60619 | -135.62537 | 24356 ft | 354 kts | 298° |
| 2026-04-21 01:09 | 58.61941 | -135.66556 | 24917 ft | 358 kts | 298° |
| 2026-04-21 01:09 | 58.63277 | -135.70624 | 25453 ft | 362 kts | 298° |
| 2026-04-21 01:09 | 58.64631 | -135.74734 | 25865 ft | 366 kts | 298° |
| 2026-04-21 01:09 | 58.65974 | -135.78846 | 26374 ft | 369 kts | 298° |
| 2026-04-21 01:10 | 58.67343 | -135.83054 | 26781 ft | 373 kts | 298° |
| 2026-04-21 01:10 | 58.68739 | -135.87278 | 27283 ft | 376 kts | 298° |
| 2026-04-21 01:10 | 58.70116 | -135.91548 | 27845 ft | 376 kts | 297° |
| 2026-04-21 01:10 | 58.71497 | -135.95862 | 28258 ft | 380 kts | 298° |
| 2026-04-21 01:11 | 58.72909 | -136.00203 | 28642 ft | 385 kts | 298° |
| 2026-04-21 01:11 | 58.74338 | -136.04594 | 29028 ft | 388 kts | 298° |
| 2026-04-21 01:11 | 58.75773 | -136.09015 | 29428 ft | 391 kts | 298° |
| 2026-04-21 01:11 | 58.77219 | -136.13488 | 29826 ft | 394 kts | 298° |
| 2026-04-21 01:12 | 58.78670 | -136.17995 | 30085 ft | 399 kts | 298° |
| 2026-04-21 01:12 | 58.80137 | -136.22584 | 30318 ft | 403 kts | 298° |
| 2026-04-21 01:12 | 58.81609 | -136.27170 | 30790 ft | 401 kts | 298° |
| 2026-04-21 01:12 | 58.83083 | -136.31766 | 31133 ft | 403 kts | 298° |
| 2026-04-21 01:13 | 58.84559 | -136.36380 | 31450 ft | 405 kts | 298° |
| 2026-04-21 01:13 | 58.86032 | -136.40994 | 31808 ft | 406 kts | 298° |
| 2026-04-21 01:13 | 58.87515 | -136.45660 | 32170 ft | 407 kts | 298° |
| 2026-04-21 01:13 | 58.88982 | -136.50280 | 32480 ft | 408 kts | 298° |
| 2026-04-21 01:14 | 58.90486 | -136.55018 | 32843 ft | 409 kts | 298° |
| 2026-04-21 01:14 | 58.91973 | -136.59726 | 33195 ft | 410 kts | 298° |
| 2026-04-21 01:14 | 58.93445 | -136.64397 | 33502 ft | 411 kts | 298° |
| 2026-04-21 01:14 | 58.94935 | -136.69130 | 33738 ft | 414 kts | 298° |
| 2026-04-21 01:15 | 58.96435 | -136.73911 | 33842 ft | 419 kts | 298° |
| 2026-04-21 01:15 | 58.97950 | -136.78746 | 34135 ft | 419 kts | 298° |
| 2026-04-21 01:15 | 58.99477 | -136.83623 | 34496 ft | 418 kts | 298° |
| 2026-04-21 01:15 | 59.00974 | -136.88409 | 34796 ft | 417 kts | 298° |
| 2026-04-21 01:16 | 59.02484 | -136.93253 | 35041 ft | 419 kts | 297° |
| 2026-04-21 01:16 | 59.03980 | -136.98066 | 35276 ft | 420 kts | 298° |
| 2026-04-21 01:16 | 59.05499 | -137.02955 | 35586 ft | 419 kts | 297° |
| 2026-04-21 01:16 | 59.06993 | -137.07775 | 35885 ft | 418 kts | 297° |
| 2026-04-21 01:17 | 59.08499 | -137.12646 | 36141 ft | 419 kts | 297° |
| 2026-04-21 01:17 | 59.09984 | -137.17461 | 36329 ft | 420 kts | 297° |
| 2026-04-21 01:17 | 59.11487 | -137.22348 | 36547 ft | 420 kts | 297° |
| 2026-04-21 01:17 | 59.12990 | -137.27240 | 36806 ft | 419 kts | 297° |
| 2026-04-21 01:18 | 59.14479 | -137.32098 | 37077 ft | 419 kts | 297° |
| 2026-04-21 01:18 | 59.15969 | -137.36966 | 37319 ft | 419 kts | 297° |
| 2026-04-21 01:18 | 59.17464 | -137.41864 | 37535 ft | 419 kts | 297° |
| 2026-04-21 01:18 | 59.18969 | -137.46805 | 37743 ft | 420 kts | 296° |
| 2026-04-21 01:19 | 59.20465 | -137.51698 | 37947 ft | 420 kts | 296° |
| 2026-04-21 01:19 | 59.21926 | -137.56555 | 38014 ft | 423 kts | 295° |
| 2026-04-21 01:19 | 59.24908 | -137.66542 | 38028 ft | 423 kts | 296° |
| 2026-04-21 01:20 | 59.27885 | -137.76329 | 38044 ft | 420 kts | 297° |
| 2026-04-21 01:20 | 59.30934 | -137.86273 | 38054 ft | 428 kts | 297° |
| 2026-04-21 01:21 | 59.33914 | -137.96385 | 38064 ft | 431 kts | 297° |
| 2026-04-21 01:21 | 59.36926 | -138.06588 | 38048 ft | 432 kts | 297° |
| 2026-04-21 01:22 | 59.39936 | -138.16752 | 38030 ft | 432 kts | 297° |
| 2026-04-21 01:22 | 59.42744 | -138.27090 | 38074 ft | 428 kts | 288° |
| 2026-04-21 01:23 | 59.44581 | -138.38182 | 38055 ft | 426 kts | 285° |
| 2026-04-21 01:23 | 59.46270 | -138.49307 | 38032 ft | 424 kts | 285° |
| 2026-04-21 01:24 | 59.47983 | -138.60364 | 38028 ft | 421 kts | 285° |
| 2026-04-21 01:24 | 59.49726 | -138.71403 | 38020 ft | 420 kts | 285° |
| 2026-04-21 01:25 | 59.51453 | -138.82311 | 38027 ft | 419 kts | 285° |
| 2026-04-21 01:25 | 59.53181 | -138.93272 | 38047 ft | 419 kts | 285° |
| 2026-04-21 01:26 | 59.54903 | -139.04265 | 38036 ft | 420 kts | 285° |
| 2026-04-21 01:26 | 59.56624 | -139.15327 | 38041 ft | 423 kts | 285° |
| 2026-04-21 01:27 | 59.58053 | -139.24568 | 38029 ft | 425 kts | 285° |
| 2026-04-21 01:27 | 59.60053 | -139.37580 | 38034 ft | 426 kts | 285° |
| 2026-04-21 01:28 | 59.61489 | -139.46993 | 38037 ft | 427 kts | 285° |
| 2026-04-21 01:28 | 59.63186 | -139.58177 | 38055 ft | 428 kts | 285° |
| 2026-04-21 01:29 | 59.64885 | -139.69447 | 38030 ft | 428 kts | 285° |
| 2026-04-21 01:29 | 59.66575 | -139.80732 | 38015 ft | 427 kts | 285° |
| 2026-04-21 01:30 | 59.68253 | -139.92018 | 38015 ft | 425 kts | 285° |
| 2026-04-21 01:30 | 59.69905 | -140.03203 | 38008 ft | 424 kts | 285° |
| 2026-04-21 01:31 | 59.71546 | -140.14395 | 38011 ft | 422 kts | 284° |
| 2026-04-21 01:31 | 59.73174 | -140.25566 | 38023 ft | 422 kts | 284° |
| 2026-04-21 01:32 | 59.74795 | -140.36771 | 38004 ft | 421 kts | 284° |
| 2026-04-21 01:32 | 59.76400 | -140.47941 | 38005 ft | 421 kts | 284° |
| 2026-04-21 01:33 | 59.77989 | -140.59075 | 38001 ft | 421 kts | 284° |
| 2026-04-21 01:33 | 59.79579 | -140.70286 | 38003 ft | 421 kts | 284° |
| 2026-04-21 01:34 | 59.81156 | -140.81491 | 37994 ft | 422 kts | 284° |
| 2026-04-21 01:34 | 59.82723 | -140.92705 | 38013 ft | 423 kts | 284° |
| 2026-04-21 01:35 | 59.84293 | -141.04013 | 37996 ft | 424 kts | 284° |
| 2026-04-21 01:35 | 59.85851 | -141.15322 | 37989 ft | 425 kts | 284° |
| 2026-04-21 01:36 | 59.87407 | -141.26695 | 37987 ft | 425 kts | 284° |
| 2026-04-21 01:36 | 59.88950 | -141.38054 | 37980 ft | 425 kts | 284° |
| 2026-04-21 01:37 | 59.90477 | -141.49378 | 37963 ft | 425 kts | 283° |
| 2026-04-21 01:37 | 59.91999 | -141.60742 | 37987 ft | 424 kts | 284° |
| 2026-04-21 01:38 | 59.93512 | -141.72130 | 37971 ft | 424 kts | 283° |
| 2026-04-21 01:38 | 59.95007 | -141.83464 | 37970 ft | 424 kts | 283° |
| 2026-04-21 01:39 | 59.96494 | -141.94825 | 37970 ft | 424 kts | 283° |
| 2026-04-21 01:39 | 59.97980 | -142.06257 | 37970 ft | 424 kts | 283° |
| 2026-04-21 01:40 | 59.99442 | -142.17591 | 37957 ft | 424 kts | 283° |
| 2026-04-21 01:40 | 60.00906 | -142.29031 | 37970 ft | 424 kts | 283° |
| 2026-04-21 01:41 | 60.02355 | -142.40438 | 37954 ft | 425 kts | 283° |
| 2026-04-21 01:41 | 60.03803 | -142.51931 | 37951 ft | 425 kts | 283° |
| 2026-04-21 01:42 | 60.05243 | -142.63439 | 37951 ft | 426 kts | 283° |
| 2026-04-21 01:42 | 60.06667 | -142.74921 | 37943 ft | 426 kts | 283° |
| 2026-04-21 01:43 | 60.08081 | -142.86405 | 37937 ft | 426 kts | 283° |
| 2026-04-21 01:43 | 60.09491 | -142.97948 | 37940 ft | 426 kts | 283° |
| 2026-04-21 01:44 | 60.10892 | -143.09505 | 37930 ft | 427 kts | 283° |
| 2026-04-21 01:44 | 60.12283 | -143.21077 | 37932 ft | 427 kts | 283° |
| 2026-04-21 01:45 | 60.13664 | -143.32665 | 37921 ft | 426 kts | 283° |
| 2026-04-21 01:45 | 60.15030 | -143.44216 | 37929 ft | 426 kts | 282° |
| 2026-04-21 01:46 | 60.16387 | -143.55781 | 37907 ft | 426 kts | 282° |
| 2026-04-21 01:46 | 60.17735 | -143.67377 | 37913 ft | 426 kts | 282° |
| 2026-04-21 01:47 | 60.19067 | -143.78925 | 37906 ft | 426 kts | 282° |
| 2026-04-21 01:47 | 60.20401 | -143.90588 | 37914 ft | 425 kts | 282° |
| 2026-04-21 01:48 | 60.21714 | -144.02161 | 37916 ft | 425 kts | 282° |
| 2026-04-21 01:48 | 60.23019 | -144.13764 | 37908 ft | 425 kts | 282° |
| 2026-04-21 01:49 | 60.24309 | -144.25340 | 37914 ft | 425 kts | 282° |
| 2026-04-21 01:49 | 60.25590 | -144.36929 | 37926 ft | 426 kts | 282° |
| 2026-04-21 01:50 | 60.26869 | -144.48595 | 37911 ft | 426 kts | 282° |
| 2026-04-21 01:50 | 60.28135 | -144.60257 | 37928 ft | 427 kts | 282° |
| 2026-04-21 01:51 | 60.29390 | -144.71912 | 37916 ft | 427 kts | 281° |
| 2026-04-21 01:51 | 60.30645 | -144.83678 | 37920 ft | 427 kts | 281° |
| 2026-04-21 01:52 | 60.32497 | -145.01229 | 37908 ft | 426 kts | 281° |
| 2026-04-21 01:53 | 60.33720 | -145.12958 | 37920 ft | 426 kts | 281° |
| 2026-04-21 01:53 | 60.34928 | -145.24647 | 37930 ft | 426 kts | 281° |
| 2026-04-21 01:54 | 60.36124 | -145.36326 | 37933 ft | 426 kts | 281° |
| 2026-04-21 01:54 | 60.37312 | -145.48046 | 37939 ft | 426 kts | 281° |
| 2026-04-21 01:55 | 60.38492 | -145.59783 | 37935 ft | 425 kts | 281° |
| 2026-04-21 01:55 | 60.39658 | -145.71504 | 37924 ft | 425 kts | 281° |
| 2026-04-21 01:56 | 60.40809 | -145.83175 | 37927 ft | 426 kts | 281° |
| 2026-04-21 01:56 | 60.41956 | -145.94928 | 37922 ft | 426 kts | 280° |
| 2026-04-21 01:57 | 60.43094 | -146.06690 | 37912 ft | 426 kts | 280° |
| 2026-04-21 01:57 | 60.44223 | -146.18490 | 37914 ft | 426 kts | 280° |
| 2026-04-21 01:58 | 60.45343 | -146.30303 | 37897 ft | 426 kts | 280° |
| 2026-04-21 01:58 | 60.46446 | -146.42043 | 37885 ft | 427 kts | 280° |
| 2026-04-21 01:59 | 60.47546 | -146.53870 | 37894 ft | 427 kts | 280° |
| 2026-04-21 01:59 | 60.48286 | -146.59697 | 37861 ft | 429 kts | 291° |
| 2026-04-21 01:59 | 60.49706 | -146.65011 | 37893 ft | 430 kts | 302° |
| 2026-04-21 02:00 | 60.53156 | -146.74961 | 37883 ft | 431 kts | 303° |
| 2026-04-21 02:00 | 60.56665 | -146.84864 | 37883 ft | 432 kts | 303° |
| 2026-04-21 02:01 | 60.60136 | -146.94851 | 37891 ft | 432 kts | 302° |
| 2026-04-21 02:01 | 60.63549 | -147.04818 | 37888 ft | 432 kts | 302° |
| 2026-04-21 02:02 | 60.66967 | -147.14880 | 37883 ft | 431 kts | 302° |
| 2026-04-21 02:02 | 60.70374 | -147.24952 | 37897 ft | 431 kts | 302° |
| 2026-04-21 02:03 | 60.73776 | -147.35053 | 37885 ft | 430 kts | 302° |
| 2026-04-21 02:03 | 60.77180 | -147.45205 | 37291 ft | 437 kts | 302° |
| 2026-04-21 02:03 | 60.78891 | -147.50323 | 36676 ft | 435 kts | 302° |
| 2026-04-21 02:04 | 60.80594 | -147.55426 | 36040 ft | 433 kts | 302° |
| 2026-04-21 02:04 | 60.82294 | -147.60531 | 35315 ft | 433 kts | 302° |
| 2026-04-21 02:04 | 60.83973 | -147.65586 | 34547 ft | 435 kts | 301° |
| 2026-04-21 02:04 | 60.85677 | -147.70730 | 33796 ft | 435 kts | 301° |
| 2026-04-21 02:05 | 60.87365 | -147.75831 | 33172 ft | 429 kts | 301° |
| 2026-04-21 02:05 | 60.88870 | -147.80390 | 32622 ft | 425 kts | 301° |
| 2026-04-21 02:05 | 60.90518 | -147.85391 | 32051 ft | 420 kts | 301° |
| 2026-04-21 02:05 | 60.92141 | -147.90328 | 31497 ft | 414 kts | 301° |
| 2026-04-21 02:06 | 60.93742 | -147.95208 | 30963 ft | 409 kts | 301° |
| 2026-04-21 02:06 | 60.95324 | -148.00045 | 30421 ft | 405 kts | 301° |
| 2026-04-21 02:06 | 60.96887 | -148.04834 | 29889 ft | 401 kts | 301° |
| 2026-04-21 02:06 | 60.98432 | -148.09572 | 29253 ft | 396 kts | 302° |
| 2026-04-21 02:07 | 60.99955 | -148.14252 | 28698 ft | 390 kts | 302° |
| 2026-04-21 02:07 | 61.01451 | -148.18864 | 28152 ft | 384 kts | 302° |
| 2026-04-21 02:07 | 61.02923 | -148.23409 | 27596 ft | 378 kts | 302° |
| 2026-04-21 02:07 | 61.04370 | -148.27892 | 27080 ft | 373 kts | 302° |
| 2026-04-21 02:08 | 61.05804 | -148.32340 | 26512 ft | 369 kts | 302° |
| 2026-04-21 02:08 | 61.07218 | -148.36729 | 25984 ft | 365 kts | 302° |
| 2026-04-21 02:08 | 61.08616 | -148.41079 | 25458 ft | 361 kts | 302° |
| 2026-04-21 02:08 | 61.09981 | -148.45334 | 24961 ft | 358 kts | 302° |
| 2026-04-21 02:09 | 61.11351 | -148.49614 | 24451 ft | 356 kts | 302° |
| 2026-04-21 02:09 | 61.12712 | -148.53873 | 23936 ft | 354 kts | 303° |
| 2026-04-21 02:09 | 61.14065 | -148.58115 | 23406 ft | 351 kts | 302° |
| 2026-04-21 02:09 | 61.15408 | -148.62334 | 22814 ft | 349 kts | 302° |
| 2026-04-21 02:10 | 61.16736 | -148.66511 | 22271 ft | 345 kts | 302° |
| 2026-04-21 02:10 | 61.18046 | -148.70640 | 21779 ft | 340 kts | 302° |
| 2026-04-21 02:10 | 61.19345 | -148.74736 | 21266 ft | 336 kts | 302° |
| 2026-04-21 02:10 | 61.20619 | -148.78762 | 20788 ft | 332 kts | 302° |
| 2026-04-21 02:11 | 61.21877 | -148.82748 | 20297 ft | 329 kts | 302° |
| 2026-04-21 02:11 | 61.23126 | -148.86717 | 19796 ft | 327 kts | 301° |
| 2026-04-21 02:11 | 61.24346 | -148.90628 | 19269 ft | 325 kts | 301° |
| 2026-04-21 02:11 | 61.25564 | -148.94557 | 18755 ft | 321 kts | 301° |
| 2026-04-21 02:12 | 61.26762 | -148.98449 | 18316 ft | 319 kts | 301° |
| 2026-04-21 02:12 | 61.27956 | -149.02325 | 17753 ft | 317 kts | 301° |
| 2026-04-21 02:12 | 61.29129 | -149.06144 | 17409 ft | 309 kts | 301° |
| 2026-04-21 02:12 | 61.30282 | -149.09878 | 16976 ft | 305 kts | 301° |
| 2026-04-21 02:13 | 61.31432 | -149.13615 | 16503 ft | 308 kts | 301° |
| 2026-04-21 02:13 | 61.32594 | -149.17399 | 16031 ft | 313 kts | 301° |
| 2026-04-21 02:13 | 61.33778 | -149.21256 | 15558 ft | 319 kts | 301° |
| 2026-04-21 02:13 | 61.34975 | -149.25163 | 15075 ft | 319 kts | 301° |
| 2026-04-21 02:14 | 61.36161 | -149.29052 | 14591 ft | 318 kts | 301° |
| 2026-04-21 02:14 | 61.37387 | -149.32891 | 14097 ft | 318 kts | 308° |
| 2026-04-21 02:14 | 61.39069 | -149.35881 | 13601 ft | 318 kts | 323° |
| 2026-04-21 02:14 | 61.40816 | -149.38699 | 13062 ft | 317 kts | 319° |
| 2026-04-21 02:15 | 61.42422 | -149.41722 | 12606 ft | 313 kts | 314° |
| 2026-04-21 02:15 | 61.43929 | -149.44997 | 12158 ft | 310 kts | 310° |
| 2026-04-21 02:15 | 61.45317 | -149.48422 | 11697 ft | 307 kts | 307° |
| 2026-04-21 02:15 | 61.46600 | -149.51989 | 11237 ft | 305 kts | 304° |
| 2026-04-21 02:16 | 61.47786 | -149.55658 | 10783 ft | 304 kts | 302° |
| 2026-04-21 02:16 | 61.48873 | -149.59422 | 10417 ft | 299 kts | 298° |
| 2026-04-21 02:16 | 61.49521 | -149.61944 | 10238 ft | 293 kts | 296° |
| 2026-04-21 02:16 | 61.50630 | -149.67004 | 10046 ft | 279 kts | 291° |
| 2026-04-21 02:17 | 61.51088 | -149.69478 | 9987 ft | 270 kts | 289° |
| 2026-04-21 02:17 | 61.51691 | -149.73213 | 9488 ft | 273 kts | 286° |
| 2026-04-21 02:17 | 61.52351 | -149.78278 | 8991 ft | 271 kts | 282° |
| 2026-04-21 02:17 | 61.52626 | -149.80883 | 8750 ft | 269 kts | 280° |
| 2026-04-21 02:18 | 61.52948 | -149.84675 | 8419 ft | 266 kts | 277° |
| 2026-04-21 02:18 | 61.53178 | -149.88520 | 8081 ft | 264 kts | 274° |
| 2026-04-21 02:18 | 61.53311 | -149.92331 | 7742 ft | 261 kts | 271° |
| 2026-04-21 02:18 | 61.53352 | -149.96119 | 7397 ft | 259 kts | 268° |
| 2026-04-21 02:19 | 61.53303 | -149.99887 | 7064 ft | 257 kts | 265° |
| 2026-04-21 02:19 | 61.53167 | -150.03608 | 6705 ft | 256 kts | 262° |
| 2026-04-21 02:19 | 61.52945 | -150.07300 | 6359 ft | 254 kts | 259° |
| 2026-04-21 02:19 | 61.52644 | -150.10933 | 6009 ft | 253 kts | 257° |
| 2026-04-21 02:20 | 61.52145 | -150.14419 | 5668 ft | 249 kts | 238° |
| 2026-04-21 02:20 | 61.50942 | -150.16858 | 5532 ft | 238 kts | 207° |
| 2026-04-21 02:20 | 61.49322 | -150.17406 | 5148 ft | 242 kts | 174° |
| 2026-04-21 02:20 | 61.47671 | -150.16760 | 4829 ft | 241 kts | 171° |
| 2026-04-21 02:21 | 61.46048 | -150.16025 | 4484 ft | 241 kts | 169° |
| 2026-04-21 02:21 | 61.44417 | -150.15194 | 4149 ft | 241 kts | 168° |
| 2026-04-21 02:21 | 61.42793 | -150.14303 | 3817 ft | 240 kts | 167° |
| 2026-04-21 02:21 | 61.41192 | -150.13357 | 3591 ft | 235 kts | 166° |
| 2026-04-21 02:22 | 61.39649 | -150.12467 | 3479 ft | 226 kts | 167° |
| 2026-04-21 02:22 | 61.38161 | -150.11628 | 3380 ft | 215 kts | 167° |
| 2026-04-21 02:22 | 61.36762 | -150.10845 | 3302 ft | 201 kts | 167° |
| 2026-04-21 02:22 | 61.35460 | -150.10117 | 3209 ft | 186 kts | 168° |
| 2026-04-21 02:23 | 61.34253 | -150.09441 | 3099 ft | 173 kts | 168° |
| 2026-04-21 02:23 | 61.33114 | -150.08806 | 3016 ft | 168 kts | 168° |
| 2026-04-21 02:23 | 61.31968 | -150.08167 | 2891 ft | 172 kts | 168° |
| 2026-04-21 02:23 | 61.30827 | -150.07530 | 2638 ft | 170 kts | 168° |
| 2026-04-21 02:24 | 61.29706 | -150.06901 | 2398 ft | 163 kts | 168° |
| 2026-04-21 02:24 | 61.28637 | -150.06302 | 2157 ft | 156 kts | 168° |
| 2026-04-21 02:24 | 61.27611 | -150.05729 | 1918 ft | 148 kts | 167° |
| 2026-04-21 02:24 | 61.26656 | -150.05194 | 1694 ft | 137 kts | 167° |
| 2026-04-21 02:25 | 61.25789 | -150.04708 | 1511 ft | 124 kts | 167° |
| 2026-04-21 02:25 | 61.24972 | -150.04253 | 1337 ft | 122 kts | 167° |
| 2026-04-21 02:25 | 61.24147 | -150.03792 | 1147 ft | 125 kts | 166° |
| 2026-04-21 02:25 | 61.23296 | -150.03311 | 942 ft | 129 kts | 166° |
| 2026-04-21 02:26 | 61.22424 | -150.02826 | 762 ft | 132 kts | 166° |
| 2026-04-21 02:26 | 61.21526 | -150.02322 | 568 ft | 133 kts | 165° |
| 2026-04-21 02:26 | 61.20623 | -150.01812 | 356 ft | 136 kts | 165° |
| 2026-04-21 02:26 | 61.19726 | -150.01315 | 174 ft | 127 kts | 165° |
| 2026-04-21 02:27 | 61.18950 | -150.00883 | 139 ft | 100 kts | 165° |
| 2026-04-21 02:27 | 61.18383 | -150.00567 | 125 ft | 73 kts | 165° |
| 2026-04-21 02:27 | 61.17933 | -150.00313 | 120 ft | 62 kts | 165° |
| 2026-04-21 02:27 | 61.17556 | -150.00105 | 119 ft | 52 kts | 165° |
| 2026-04-21 02:28 | 61.17255 | -149.99933 | 125 ft | 35 kts | 165° |
| 2026-04-21 02:28 | 61.17124 | -149.99702 | 122 ft | 24 kts | 90° |
| 2026-04-21 02:28 | 61.17124 | -149.99368 | 120 ft | 23 kts | 89° |
| 2026-04-21 02:28 | 61.17124 | -149.99043 | 115 ft | 22 kts | 94° |
| 2026-04-21 02:29 | 61.17116 | -149.98728 | 114 ft | 22 kts | 92° |
| 2026-04-21 02:29 | 61.17118 | -149.98421 | 114 ft | 21 kts | 89° |
| 2026-04-21 02:29 | 61.17151 | -149.98250 | 111 ft | 9 kts | 356° |
| 2026-04-21 02:29 | 61.17213 | -149.98295 | 110 ft | 9 kts | 340° |
| 2026-04-21 02:30 | 61.17237 | -149.98313 | 110 ft | 2 kts | 341° |
| 2026-04-21 02:30 | 61.17244 | -149.98318 | 109 ft | 0 kts | 341° |